sensor_id;sensor_type;location;lat;lon;timestamp;temperature;humidity
1361;DHT22;674;45.552;-122.600;2022-07-29T00:00:22;33.20;1.00
1361;DHT22;674;45.552;-122.600;2022-07-29T00:02:51;32.90;1.00
1361;DHT22;674;45.552;-122.600;2022-07-29T00:05:20;33.00;1.00
1361;DHT22;674;45.552;-122.600;2022-07-29T00:07:48;33.20;1.00
1361;DHT22;674;45.552;-122.600;2022-07-29T00:10:17;33.20;1.00
1361;DHT22;674;45.552;-122.600;2022-07-29T00:12:46;33.20;1.00
1361;DHT22;674;45.552;-122.600;2022-07-29T00:15:14;33.10;1.00
1361;DHT22;674;45.552;-122.600;2022-07-29T00:17:43;33.10;1.00
1361;DHT22;674;45.552;-122.600;2022-07-29T00:20:11;33.10;1.00
1361;DHT22;674;45.552;-122.600;2022-07-29T00:22:39;33.10;1.00
1361;DHT22;674;45.552;-122.600;2022-07-29T00:25:08;33.10;1.00
1361;DHT22;674;45.552;-122.600;2022-07-29T00:27:37;33.10;1.00
1361;DHT22;674;45.552;-122.600;2022-07-29T00:30:06;33.10;1.00
1361;DHT22;674;45.552;-122.600;2022-07-29T00:32:35;33.00;1.00
1361;DHT22;674;45.552;-122.600;2022-07-29T00:35:04;32.90;1.00
1361;DHT22;674;45.552;-122.600;2022-07-29T00:37:52;33.00;1.00
1361;DHT22;674;45.552;-122.600;2022-07-29T00:40:20;33.10;1.00
1361;DHT22;674;45.552;-122.600;2022-07-29T00:42:51;33.20;1.00
1361;DHT22;674;45.552;-122.600;2022-07-29T00:45:20;33.40;1.00
1361;DHT22;674;45.552;-122.600;2022-07-29T00:47:49;33.40;1.00
1361;DHT22;674;45.552;-122.600;2022-07-29T00:50:18;33.40;1.00
1361;DHT22;674;45.552;-122.600;2022-07-29T00:52:47;33.40;1.00
1361;DHT22;674;45.552;-122.600;2022-07-29T00:55:16;33.40;1.00
1361;DHT22;674;45.552;-122.600;2022-07-29T00:57:45;33.40;1.00
1361;DHT22;674;45.552;-122.600;2022-07-29T01:00:21;33.30;1.00
1361;DHT22;674;45.552;-122.600;2022-07-29T01:02:50;33.20;1.00
1361;DHT22;674;45.552;-122.600;2022-07-29T01:05:21;33.10;1.00
1361;DHT22;674;45.552;-122.600;2022-07-29T01:08:12;33.20;1.00
1361;DHT22;674;45.552;-122.600;2022-07-29T01:10:42;33.20;1.00
1361;DHT22;674;45.552;-122.600;2022-07-29T01:13:12;33.00;1.00
1361;DHT22;674;45.552;-122.600;2022-07-29T01:15:47;33.00;1.00
1361;DHT22;674;45.552;-122.600;2022-07-29T01:18:39;33.10;1.00
1361;DHT22;674;45.552;-122.600;2022-07-29T01:21:35;33.00;1.00
1361;DHT22;674;45.552;-122.600;2022-07-29T01:24:26;33.00;1.00
1361;DHT22;674;45.552;-122.600;2022-07-29T01:27:26;33.00;1.00
1361;DHT22;674;45.552;-122.600;2022-07-29T01:30:00;33.20;1.00
1361;DHT22;674;45.552;-122.600;2022-07-29T01:32:36;33.20;1.00
1361;DHT22;674;45.552;-122.600;2022-07-29T01:35:10;33.10;1.00
1361;DHT22;674;45.552;-122.600;2022-07-29T01:40:51;33.00;1.00
1361;DHT22;674;45.552;-122.600;2022-07-29T01:43:27;33.00;1.00
1361;DHT22;674;45.552;-122.600;2022-07-29T01:46:05;33.10;1.00
1361;DHT22;674;45.552;-122.600;2022-07-29T01:48:40;33.10;1.00
1361;DHT22;674;45.552;-122.600;2022-07-29T01:51:20;33.00;1.00
1361;DHT22;674;45.552;-122.600;2022-07-29T01:56:40;33.00;1.00
1361;DHT22;674;45.552;-122.600;2022-07-29T01:59:10;32.90;1.00
1361;DHT22;674;45.552;-122.600;2022-07-29T02:01:40;32.90;1.00
1361;DHT22;674;45.552;-122.600;2022-07-29T02:04:10;32.90;1.00
1361;DHT22;674;45.552;-122.600;2022-07-29T02:07:02;32.60;1.00
1361;DHT22;674;45.552;-122.600;2022-07-29T02:09:34;32.60;1.00
1361;DHT22;674;45.552;-122.600;2022-07-29T02:12:04;32.50;1.00
1361;DHT22;674;45.552;-122.600;2022-07-29T02:14:38;32.50;1.00
1361;DHT22;674;45.552;-122.600;2022-07-29T02:17:08;32.60;1.00
1361;DHT22;674;45.552;-122.600;2022-07-29T02:19:39;32.60;1.00
1361;DHT22;674;45.552;-122.600;2022-07-29T02:22:10;32.70;1.00
1361;DHT22;674;45.552;-122.600;2022-07-29T02:24:40;32.60;1.00
1361;DHT22;674;45.552;-122.600;2022-07-29T02:27:09;32.60;1.00
1361;DHT22;674;45.552;-122.600;2022-07-29T02:29:40;32.40;1.00
1361;DHT22;674;45.552;-122.600;2022-07-29T02:32:10;32.40;1.00
1361;DHT22;674;45.552;-122.600;2022-07-29T02:34:41;32.30;1.00
1361;DHT22;674;45.552;-122.600;2022-07-29T02:37:11;32.30;1.00
1361;DHT22;674;45.552;-122.600;2022-07-29T02:39:42;32.20;1.00
1361;DHT22;674;45.552;-122.600;2022-07-29T02:42:14;32.20;1.00
1361;DHT22;674;45.552;-122.600;2022-07-29T02:44:44;32.20;1.00
1361;DHT22;674;45.552;-122.600;2022-07-29T02:47:42;32.20;1.00
1361;DHT22;674;45.552;-122.600;2022-07-29T02:50:37;32.00;1.00
1361;DHT22;674;45.552;-122.600;2022-07-29T02:53:17;31.70;1.00
1361;DHT22;674;45.552;-122.600;2022-07-29T02:58:32;31.60;1.00
1361;DHT22;674;45.552;-122.600;2022-07-29T03:01:15;31.60;1.00
1361;DHT22;674;45.552;-122.600;2022-07-29T03:03:50;31.50;1.00
1361;DHT22;674;45.552;-122.600;2022-07-29T03:06:21;31.40;1.00
1361;DHT22;674;45.552;-122.600;2022-07-29T03:09:07;31.40;1.00
1361;DHT22;674;45.552;-122.600;2022-07-29T03:11:41;31.10;1.00
1361;DHT22;674;45.552;-122.600;2022-07-29T03:14:18;31.10;1.00
1361;DHT22;674;45.552;-122.600;2022-07-29T03:16:49;31.10;1.00
1361;DHT22;674;45.552;-122.600;2022-07-29T03:19:19;31.00;1.00
1361;DHT22;674;45.552;-122.600;2022-07-29T03:21:48;30.90;1.00
1361;DHT22;674;45.552;-122.600;2022-07-29T03:24:27;30.70;1.00
1361;DHT22;674;45.552;-122.600;2022-07-29T03:26:56;30.60;1.00
1361;DHT22;674;45.552;-122.600;2022-07-29T03:29:26;30.40;1.00
1361;DHT22;674;45.552;-122.600;2022-07-29T03:32:02;30.30;1.00
1361;DHT22;674;45.552;-122.600;2022-07-29T03:34:36;30.30;1.00
1361;DHT22;674;45.552;-122.600;2022-07-29T03:37:06;30.30;1.00
1361;DHT22;674;45.552;-122.600;2022-07-29T03:39:40;30.30;1.00
1361;DHT22;674;45.552;-122.600;2022-07-29T03:42:13;30.00;1.00
1361;DHT22;674;45.552;-122.600;2022-07-29T03:44:45;29.90;1.00
1361;DHT22;674;45.552;-122.600;2022-07-29T03:47:18;29.90;1.00
1361;DHT22;674;45.552;-122.600;2022-07-29T03:50:11;29.80;1.00
1361;DHT22;674;45.552;-122.600;2022-07-29T03:52:42;29.50;1.00
1361;DHT22;674;45.552;-122.600;2022-07-29T03:55:12;29.40;1.00
1361;DHT22;674;45.552;-122.600;2022-07-29T03:57:41;29.30;1.00
1361;DHT22;674;45.552;-122.600;2022-07-29T04:00:10;29.40;1.00
1361;DHT22;674;45.552;-122.600;2022-07-29T04:02:40;29.40;1.00
1361;DHT22;674;45.552;-122.600;2022-07-29T04:05:18;29.40;1.00
1361;DHT22;674;45.552;-122.600;2022-07-29T04:07:47;29.20;1.00
1361;DHT22;674;45.552;-122.600;2022-07-29T04:10:17;29.10;1.00
1361;DHT22;674;45.552;-122.600;2022-07-29T04:12:58;29.10;1.00
1361;DHT22;674;45.552;-122.600;2022-07-29T04:15:27;29.10;1.00
1361;DHT22;674;45.552;-122.600;2022-07-29T04:17:58;29.10;1.00
1361;DHT22;674;45.552;-122.600;2022-07-29T04:20:27;29.00;1.00
1361;DHT22;674;45.552;-122.600;2022-07-29T04:22:55;28.90;1.00
1361;DHT22;674;45.552;-122.600;2022-07-29T04:25:24;28.90;1.00
1361;DHT22;674;45.552;-122.600;2022-07-29T04:27:52;28.90;1.00
1361;DHT22;674;45.552;-122.600;2022-07-29T04:30:31;28.80;1.00
1361;DHT22;674;45.552;-122.600;2022-07-29T04:33:01;28.80;1.00
1361;DHT22;674;45.552;-122.600;2022-07-29T04:35:33;28.70;1.00
1361;DHT22;674;45.552;-122.600;2022-07-29T04:38:05;28.70;1.00
1361;DHT22;674;45.552;-122.600;2022-07-29T04:40:43;28.60;1.00
1361;DHT22;674;45.552;-122.600;2022-07-29T04:43:13;28.60;1.00
1361;DHT22;674;45.552;-122.600;2022-07-29T04:45:48;28.60;1.00
1361;DHT22;674;45.552;-122.600;2022-07-29T04:48:17;28.40;1.00
1361;DHT22;674;45.552;-122.600;2022-07-29T04:50:46;28.30;1.00
1361;DHT22;674;45.552;-122.600;2022-07-29T04:53:14;28.30;1.00
1361;DHT22;674;45.552;-122.600;2022-07-29T04:55:43;28.10;1.00
1361;DHT22;674;45.552;-122.600;2022-07-29T04:58:12;28.10;1.00
1361;DHT22;674;45.552;-122.600;2022-07-29T05:00:41;28.10;1.00
1361;DHT22;674;45.552;-122.600;2022-07-29T05:03:09;28.00;1.00
1361;DHT22;674;45.552;-122.600;2022-07-29T05:05:37;27.80;1.00
1361;DHT22;674;45.552;-122.600;2022-07-29T05:08:06;27.80;1.00
1361;DHT22;674;45.552;-122.600;2022-07-29T05:10:34;27.60;1.00
1361;DHT22;674;45.552;-122.600;2022-07-29T05:13:06;27.60;1.00
1361;DHT22;674;45.552;-122.600;2022-07-29T05:15:36;27.60;1.00
1361;DHT22;674;45.552;-122.600;2022-07-29T05:18:04;27.50;1.00
1361;DHT22;674;45.552;-122.600;2022-07-29T05:20:33;27.50;1.00
1361;DHT22;674;45.552;-122.600;2022-07-29T05:23:03;27.40;1.00
1361;DHT22;674;45.552;-122.600;2022-07-29T05:25:31;27.40;1.00
1361;DHT22;674;45.552;-122.600;2022-07-29T05:28:11;27.40;1.00
1361;DHT22;674;45.552;-122.600;2022-07-29T05:30:39;27.30;1.00
1361;DHT22;674;45.552;-122.600;2022-07-29T05:33:08;27.30;1.00
1361;DHT22;674;45.552;-122.600;2022-07-29T05:35:56;27.30;1.00
1361;DHT22;674;45.552;-122.600;2022-07-29T05:38:27;27.20;1.00
1361;DHT22;674;45.552;-122.600;2022-07-29T05:40:57;27.10;1.00
1361;DHT22;674;45.552;-122.600;2022-07-29T05:43:30;27.00;1.00
1361;DHT22;674;45.552;-122.600;2022-07-29T05:45:58;26.90;1.00
1361;DHT22;674;45.552;-122.600;2022-07-29T05:48:27;26.80;1.00
1361;DHT22;674;45.552;-122.600;2022-07-29T05:50:56;26.70;1.00
1361;DHT22;674;45.552;-122.600;2022-07-29T05:53:24;26.60;1.00
1361;DHT22;674;45.552;-122.600;2022-07-29T05:55:52;26.50;1.00
1361;DHT22;674;45.552;-122.600;2022-07-29T05:58:21;26.40;1.00
1361;DHT22;674;45.552;-122.600;2022-07-29T06:00:49;26.30;1.00
1361;DHT22;674;45.552;-122.600;2022-07-29T06:03:18;26.10;1.00
1361;DHT22;674;45.552;-122.600;2022-07-29T06:05:46;26.10;1.00
1361;DHT22;674;45.552;-122.600;2022-07-29T06:08:14;26.00;1.00
1361;DHT22;674;45.552;-122.600;2022-07-29T06:10:43;26.10;1.00
1361;DHT22;674;45.552;-122.600;2022-07-29T06:13:13;26.10;1.00
1361;DHT22;674;45.552;-122.600;2022-07-29T06:15:43;26.10;1.00
1361;DHT22;674;45.552;-122.600;2022-07-29T06:18:12;26.00;1.00
1361;DHT22;674;45.552;-122.600;2022-07-29T06:20:41;26.00;1.00
1361;DHT22;674;45.552;-122.600;2022-07-29T06:23:09;25.90;1.00
1361;DHT22;674;45.552;-122.600;2022-07-29T06:25:40;25.90;1.00
1361;DHT22;674;45.552;-122.600;2022-07-29T06:28:08;25.80;1.00
1361;DHT22;674;45.552;-122.600;2022-07-29T06:30:37;25.80;1.00
1361;DHT22;674;45.552;-122.600;2022-07-29T06:33:06;25.70;1.00
1361;DHT22;674;45.552;-122.600;2022-07-29T06:35:35;25.70;1.00
1361;DHT22;674;45.552;-122.600;2022-07-29T06:38:10;25.60;1.00
1361;DHT22;674;45.552;-122.600;2022-07-29T06:41:00;25.50;1.00
1361;DHT22;674;45.552;-122.600;2022-07-29T06:43:36;25.50;1.00
1361;DHT22;674;45.552;-122.600;2022-07-29T06:46:18;25.40;1.00
1361;DHT22;674;45.552;-122.600;2022-07-29T06:48:47;25.30;1.00
1361;DHT22;674;45.552;-122.600;2022-07-29T06:51:16;25.30;1.00
1361;DHT22;674;45.552;-122.600;2022-07-29T06:53:52;25.30;1.00
1361;DHT22;674;45.552;-122.600;2022-07-29T06:56:33;25.20;1.00
1361;DHT22;674;45.552;-122.600;2022-07-29T06:59:07;25.20;1.00
1361;DHT22;674;45.552;-122.600;2022-07-29T07:01:41;25.10;1.00
1361;DHT22;674;45.552;-122.600;2022-07-29T07:04:11;25.00;1.00
1361;DHT22;674;45.552;-122.600;2022-07-29T07:06:40;24.80;1.00
1361;DHT22;674;45.552;-122.600;2022-07-29T07:09:08;24.60;1.00
1361;DHT22;674;45.552;-122.600;2022-07-29T07:11:37;24.70;1.00
1361;DHT22;674;45.552;-122.600;2022-07-29T07:14:05;24.80;1.00
1361;DHT22;674;45.552;-122.600;2022-07-29T07:16:33;24.80;1.00
1361;DHT22;674;45.552;-122.600;2022-07-29T07:19:02;24.80;1.10
1361;DHT22;674;45.552;-122.600;2022-07-29T07:21:30;24.60;4.00
1361;DHT22;674;45.552;-122.600;2022-07-29T07:24:02;24.60;1.00
1361;DHT22;674;45.552;-122.600;2022-07-29T07:26:30;24.60;4.10
1361;DHT22;674;45.552;-122.600;2022-07-29T07:28:59;24.30;12.70
1361;DHT22;674;45.552;-122.600;2022-07-29T07:31:28;24.20;22.20
1361;DHT22;674;45.552;-122.600;2022-07-29T07:33:56;24.20;17.90
1361;DHT22;674;45.552;-122.600;2022-07-29T07:36:25;24.30;15.90
1361;DHT22;674;45.552;-122.600;2022-07-29T07:38:53;24.40;11.90
1361;DHT22;674;45.552;-122.600;2022-07-29T07:41:22;24.40;10.70
1361;DHT22;674;45.552;-122.600;2022-07-29T07:43:50;24.40;10.90
1361;DHT22;674;45.552;-122.600;2022-07-29T07:46:19;24.30;9.00
1361;DHT22;674;45.552;-122.600;2022-07-29T07:48:47;24.10;18.30
1361;DHT22;674;45.552;-122.600;2022-07-29T07:51:16;23.90;27.50
1361;DHT22;674;45.552;-122.600;2022-07-29T07:53:44;23.90;21.40
1361;DHT22;674;45.552;-122.600;2022-07-29T07:56:12;24.00;20.60
1361;DHT22;674;45.552;-122.600;2022-07-29T07:58:41;24.00;24.80
1361;DHT22;674;45.552;-122.600;2022-07-29T08:01:09;24.00;21.20
1361;DHT22;674;45.552;-122.600;2022-07-29T08:03:38;24.00;18.10
1361;DHT22;674;45.552;-122.600;2022-07-29T08:06:07;23.90;26.00
1361;DHT22;674;45.552;-122.600;2022-07-29T08:08:35;23.60;35.60
1361;DHT22;674;45.552;-122.600;2022-07-29T08:11:04;23.70;31.10
1361;DHT22;674;45.552;-122.600;2022-07-29T08:13:36;23.80;26.40
1361;DHT22;674;45.552;-122.600;2022-07-29T08:16:06;23.90;28.50
1361;DHT22;674;45.552;-122.600;2022-07-29T08:18:44;23.80;23.60
1361;DHT22;674;45.552;-122.600;2022-07-29T08:21:14;23.80;23.50
1361;DHT22;674;45.552;-122.600;2022-07-29T08:23:44;23.60;27.70
1361;DHT22;674;45.552;-122.600;2022-07-29T08:26:23;23.40;26.90
1361;DHT22;674;45.552;-122.600;2022-07-29T08:28:52;23.40;18.20
1361;DHT22;674;45.552;-122.600;2022-07-29T08:31:20;23.40;18.00
1361;DHT22;674;45.552;-122.600;2022-07-29T08:33:49;23.40;14.20
1361;DHT22;674;45.552;-122.600;2022-07-29T08:36:17;23.50;16.50
1361;DHT22;674;45.552;-122.600;2022-07-29T08:38:46;23.40;18.80
1361;DHT22;674;45.552;-122.600;2022-07-29T08:41:14;23.20;22.40
1361;DHT22;674;45.552;-122.600;2022-07-29T08:43:42;23.30;20.20
1361;DHT22;674;45.552;-122.600;2022-07-29T08:46:11;23.30;14.20
1361;DHT22;674;45.552;-122.600;2022-07-29T08:48:41;23.40;11.40
1361;DHT22;674;45.552;-122.600;2022-07-29T08:51:14;23.30;23.00
1361;DHT22;674;45.552;-122.600;2022-07-29T08:53:44;23.10;26.40
1361;DHT22;674;45.552;-122.600;2022-07-29T08:56:14;23.10;31.80
1361;DHT22;674;45.552;-122.600;2022-07-29T08:58:48;23.10;33.30
1361;DHT22;674;45.552;-122.600;2022-07-29T09:01:23;23.20;30.00
1361;DHT22;674;45.552;-122.600;2022-07-29T09:04:04;23.30;29.40
1361;DHT22;674;45.552;-122.600;2022-07-29T09:06:37;23.20;25.10
1361;DHT22;674;45.552;-122.600;2022-07-29T09:09:07;22.90;34.40
1361;DHT22;674;45.552;-122.600;2022-07-29T09:11:36;22.90;37.40
1361;DHT22;674;45.552;-122.600;2022-07-29T09:14:05;23.00;28.10
1361;DHT22;674;45.552;-122.600;2022-07-29T09:16:53;23.00;25.90
1361;DHT22;674;45.552;-122.600;2022-07-29T09:21:56;23.00;34.50
1361;DHT22;674;45.552;-122.600;2022-07-29T09:24:46;22.90;36.90
1361;DHT22;674;45.552;-122.600;2022-07-29T09:30:01;22.60;46.50
1361;DHT22;674;45.552;-122.600;2022-07-29T09:32:30;22.70;41.70
1361;DHT22;674;45.552;-122.600;2022-07-29T09:35:17;22.70;48.10
1361;DHT22;674;45.552;-122.600;2022-07-29T09:37:46;22.50;54.50
1361;DHT22;674;45.552;-122.600;2022-07-29T09:40:18;22.50;52.10
1361;DHT22;674;45.552;-122.600;2022-07-29T09:42:48;22.50;43.40
1361;DHT22;674;45.552;-122.600;2022-07-29T09:45:46;22.50;42.70
1361;DHT22;674;45.552;-122.600;2022-07-29T09:48:24;22.50;46.20
1361;DHT22;674;45.552;-122.600;2022-07-29T09:50:52;22.50;35.60
1361;DHT22;674;45.552;-122.600;2022-07-29T09:53:35;22.30;41.00
1361;DHT22;674;45.552;-122.600;2022-07-29T09:56:05;22.20;43.20
1361;DHT22;674;45.552;-122.600;2022-07-29T09:58:34;22.30;39.70
1361;DHT22;674;45.552;-122.600;2022-07-29T10:01:03;22.30;42.80
1361;DHT22;674;45.552;-122.600;2022-07-29T10:03:31;22.30;46.20
1361;DHT22;674;45.552;-122.600;2022-07-29T10:06:11;22.30;34.40
1361;DHT22;674;45.552;-122.600;2022-07-29T10:08:41;22.40;26.30
1361;DHT22;674;45.552;-122.600;2022-07-29T10:11:11;22.30;31.40
1361;DHT22;674;45.552;-122.600;2022-07-29T10:13:41;22.20;36.10
1361;DHT22;674;45.552;-122.600;2022-07-29T10:16:11;22.20;27.00
1361;DHT22;674;45.552;-122.600;2022-07-29T10:18:42;22.00;29.20
1361;DHT22;674;45.552;-122.600;2022-07-29T10:21:11;21.90;31.70
1361;DHT22;674;45.552;-122.600;2022-07-29T10:24:01;22.00;29.50
1361;DHT22;674;45.552;-122.600;2022-07-29T10:26:30;22.10;24.70
1361;DHT22;674;45.552;-122.600;2022-07-29T10:29:00;22.20;15.30
1361;DHT22;674;45.552;-122.600;2022-07-29T10:37:44;21.90;26.60
1361;DHT22;674;45.552;-122.600;2022-07-29T10:40:36;21.80;27.90
1361;DHT22;674;45.552;-122.600;2022-07-29T10:43:31;21.90;27.90
1361;DHT22;674;45.552;-122.600;2022-07-29T10:46:04;21.90;27.30
1361;DHT22;674;45.552;-122.600;2022-07-29T10:48:34;21.90;20.20
1361;DHT22;674;45.552;-122.600;2022-07-29T10:51:05;21.90;24.10
1361;DHT22;674;45.552;-122.600;2022-07-29T10:53:57;21.90;20.40
1361;DHT22;674;45.552;-122.600;2022-07-29T10:56:32;21.70;27.30
1361;DHT22;674;45.552;-122.600;2022-07-29T11:01:50;21.70;37.20
1361;DHT22;674;45.552;-122.600;2022-07-29T11:07:13;21.70;41.10
1361;DHT22;674;45.552;-122.600;2022-07-29T11:09:44;21.50;51.80
1361;DHT22;674;45.552;-122.600;2022-07-29T11:15:10;21.40;60.40
1361;DHT22;674;45.552;-122.600;2022-07-29T11:20:42;21.20;66.10
1361;DHT22;674;45.552;-122.600;2022-07-29T11:23:30;21.30;67.00
1361;DHT22;674;45.552;-122.600;2022-07-29T11:34:29;21.10;87.20
1361;DHT22;674;45.552;-122.600;2022-07-29T11:39:43;21.10;94.10
1361;DHT22;674;45.552;-122.600;2022-07-29T11:45:18;21.10;95.30
1361;DHT22;674;45.552;-122.600;2022-07-29T11:48:07;21.00;97.00
1361;DHT22;674;45.552;-122.600;2022-07-29T11:50:58;20.90;99.90
1361;DHT22;674;45.552;-122.600;2022-07-29T11:53:29;20.90;98.90
1361;DHT22;674;45.552;-122.600;2022-07-29T11:55:59;20.90;99.50
1361;DHT22;674;45.552;-122.600;2022-07-29T11:58:30;21.00;98.80
1361;DHT22;674;45.552;-122.600;2022-07-29T12:00:59;20.90;99.90
1361;DHT22;674;45.552;-122.600;2022-07-29T12:03:31;20.80;99.90
1361;DHT22;674;45.552;-122.600;2022-07-29T12:06:13;20.80;99.90
1361;DHT22;674;45.552;-122.600;2022-07-29T12:08:44;20.70;99.90
1361;DHT22;674;45.552;-122.600;2022-07-29T12:11:17;20.60;99.90
1361;DHT22;674;45.552;-122.600;2022-07-29T12:13:49;20.70;99.90
1361;DHT22;674;45.552;-122.600;2022-07-29T12:16:18;20.70;99.90
1361;DHT22;674;45.552;-122.600;2022-07-29T12:19:00;20.50;99.90
1361;DHT22;674;45.552;-122.600;2022-07-29T12:21:52;20.60;99.90
1361;DHT22;674;45.552;-122.600;2022-07-29T12:24:23;20.60;99.90
1361;DHT22;674;45.552;-122.600;2022-07-29T12:26:57;20.50;99.90
1361;DHT22;674;45.552;-122.600;2022-07-29T12:29:26;20.50;99.90
1361;DHT22;674;45.552;-122.600;2022-07-29T12:32:03;20.60;99.90
1361;DHT22;674;45.552;-122.600;2022-07-29T12:34:46;20.60;99.90
1361;DHT22;674;45.552;-122.600;2022-07-29T12:37:14;20.70;99.90
1361;DHT22;674;45.552;-122.600;2022-07-29T12:39:43;20.50;99.90
1361;DHT22;674;45.552;-122.600;2022-07-29T12:42:15;20.40;99.90
1361;DHT22;674;45.552;-122.600;2022-07-29T12:44:49;20.50;99.90
1361;DHT22;674;45.552;-122.600;2022-07-29T12:47:19;20.60;99.90
1361;DHT22;674;45.552;-122.600;2022-07-29T12:49:49;20.60;99.90
1361;DHT22;674;45.552;-122.600;2022-07-29T12:52:31;20.40;99.90
1361;DHT22;674;45.552;-122.600;2022-07-29T12:55:00;20.40;99.90
1361;DHT22;674;45.552;-122.600;2022-07-29T12:57:29;20.40;99.90
1361;DHT22;674;45.552;-122.600;2022-07-29T13:00:04;20.40;99.90
1361;DHT22;674;45.552;-122.600;2022-07-29T13:02:39;20.50;99.90
1361;DHT22;674;45.552;-122.600;2022-07-29T13:05:10;20.30;99.90
1361;DHT22;674;45.552;-122.600;2022-07-29T13:07:40;20.30;99.90
1361;DHT22;674;45.552;-122.600;2022-07-29T13:10:23;20.30;99.90
1361;DHT22;674;45.552;-122.600;2022-07-29T13:13:07;20.30;99.90
1361;DHT22;674;45.552;-122.600;2022-07-29T13:15:39;20.40;99.90
1361;DHT22;674;45.552;-122.600;2022-07-29T13:18:47;20.50;99.90
1361;DHT22;674;45.552;-122.600;2022-07-29T13:21:15;20.40;99.90
1361;DHT22;674;45.552;-122.600;2022-07-29T13:23:45;20.50;99.90
1361;DHT22;674;45.552;-122.600;2022-07-29T13:26:13;20.60;99.90
1361;DHT22;674;45.552;-122.600;2022-07-29T13:28:44;20.60;99.90
1361;DHT22;674;45.552;-122.600;2022-07-29T13:31:12;20.50;99.90
1361;DHT22;674;45.552;-122.600;2022-07-29T13:33:43;20.70;99.90
1361;DHT22;674;45.552;-122.600;2022-07-29T13:36:11;20.80;99.90
1361;DHT22;674;45.552;-122.600;2022-07-29T13:38:40;20.80;99.90
1361;DHT22;674;45.552;-122.600;2022-07-29T13:41:08;20.90;99.90
1361;DHT22;674;45.552;-122.600;2022-07-29T13:43:37;21.00;99.90
1361;DHT22;674;45.552;-122.600;2022-07-29T13:46:05;21.10;99.90
1361;DHT22;674;45.552;-122.600;2022-07-29T13:48:34;21.30;98.60
1361;DHT22;674;45.552;-122.600;2022-07-29T13:51:02;21.30;95.70
1361;DHT22;674;45.552;-122.600;2022-07-29T13:53:30;21.20;88.20
1361;DHT22;674;45.552;-122.600;2022-07-29T13:56:00;21.30;92.10
1361;DHT22;674;45.552;-122.600;2022-07-29T13:58:28;21.40;92.20
1361;DHT22;674;45.552;-122.600;2022-07-29T14:00:57;21.50;82.70
1361;DHT22;674;45.552;-122.600;2022-07-29T14:03:25;21.60;78.80
1361;DHT22;674;45.552;-122.600;2022-07-29T14:05:54;21.60;80.90
1361;DHT22;674;45.552;-122.600;2022-07-29T14:08:27;21.70;80.60
1361;DHT22;674;45.552;-122.600;2022-07-29T14:10:55;21.70;71.00
1361;DHT22;674;45.552;-122.600;2022-07-29T14:13:24;21.90;57.60
1361;DHT22;674;45.552;-122.600;2022-07-29T14:15:52;21.80;54.00
1361;DHT22;674;45.552;-122.600;2022-07-29T14:18:21;21.90;47.30
1361;DHT22;674;45.552;-122.600;2022-07-29T14:20:49;22.10;49.40
1361;DHT22;674;45.552;-122.600;2022-07-29T14:23:18;22.00;37.10
1361;DHT22;674;45.552;-122.600;2022-07-29T14:25:47;22.10;32.30
1361;DHT22;674;45.552;-122.600;2022-07-29T14:28:16;22.10;33.80
1361;DHT22;674;45.552;-122.600;2022-07-29T14:30:45;22.10;28.40
1361;DHT22;674;45.552;-122.600;2022-07-29T14:33:13;22.40;14.60
1361;DHT22;674;45.552;-122.600;2022-07-29T14:35:42;22.40;19.40
1361;DHT22;674;45.552;-122.600;2022-07-29T14:38:10;22.50;20.40
1361;DHT22;674;45.552;-122.600;2022-07-29T14:40:39;22.60;19.00
1361;DHT22;674;45.552;-122.600;2022-07-29T14:43:07;22.60;16.90
1361;DHT22;674;45.552;-122.600;2022-07-29T14:45:35;22.80;20.30
1361;DHT22;674;45.552;-122.600;2022-07-29T14:48:04;22.80;9.40
1361;DHT22;674;45.552;-122.600;2022-07-29T14:50:33;23.00;8.70
1361;DHT22;674;45.552;-122.600;2022-07-29T14:53:01;22.90;1.00
1361;DHT22;674;45.552;-122.600;2022-07-29T14:55:30;23.00;1.00
1361;DHT22;674;45.552;-122.600;2022-07-29T14:57:58;23.00;1.00
1361;DHT22;674;45.552;-122.600;2022-07-29T15:00:38;22.90;1.00
1361;DHT22;674;45.552;-122.600;2022-07-29T15:03:06;23.00;1.00
1361;DHT22;674;45.552;-122.600;2022-07-29T15:05:38;23.10;1.00
1361;DHT22;674;45.552;-122.600;2022-07-29T15:08:06;23.30;1.00
1361;DHT22;674;45.552;-122.600;2022-07-29T15:10:35;23.60;1.00
1361;DHT22;674;45.552;-122.600;2022-07-29T15:13:04;23.80;1.00
1361;DHT22;674;45.552;-122.600;2022-07-29T15:15:33;24.10;1.00
1361;DHT22;674;45.552;-122.600;2022-07-29T15:18:01;24.50;1.00
1361;DHT22;674;45.552;-122.600;2022-07-29T15:20:30;25.00;1.00
1361;DHT22;674;45.552;-122.600;2022-07-29T15:22:58;25.50;1.00
1361;DHT22;674;45.552;-122.600;2022-07-29T15:25:27;26.00;1.00
1361;DHT22;674;45.552;-122.600;2022-07-29T15:27:55;26.40;1.00
1361;DHT22;674;45.552;-122.600;2022-07-29T15:30:29;26.60;1.00
1361;DHT22;674;45.552;-122.600;2022-07-29T15:33:02;27.40;1.00
1361;DHT22;674;45.552;-122.600;2022-07-29T15:35:31;28.50;1.00
1361;DHT22;674;45.552;-122.600;2022-07-29T15:38:07;29.50;1.00
1361;DHT22;674;45.552;-122.600;2022-07-29T15:40:37;30.80;1.00
1361;DHT22;674;45.552;-122.600;2022-07-29T15:43:08;32.50;1.00
1361;DHT22;674;45.552;-122.600;2022-07-29T15:45:37;33.80;1.00
1361;DHT22;674;45.552;-122.600;2022-07-29T15:48:08;34.90;1.00
1361;DHT22;674;45.552;-122.600;2022-07-29T15:50:41;36.70;1.00
1361;DHT22;674;45.552;-122.600;2022-07-29T15:53:13;36.10;1.00
1361;DHT22;674;45.552;-122.600;2022-07-29T15:55:41;36.50;1.00
1361;DHT22;674;45.552;-122.600;2022-07-29T15:58:10;36.20;1.00
1361;DHT22;674;45.552;-122.600;2022-07-29T16:00:39;37.20;1.00
1361;DHT22;674;45.552;-122.600;2022-07-29T16:03:07;38.90;1.00
1361;DHT22;674;45.552;-122.600;2022-07-29T16:05:36;39.90;1.00
1361;DHT22;674;45.552;-122.600;2022-07-29T16:08:05;38.40;1.00
1361;DHT22;674;45.552;-122.600;2022-07-29T16:10:33;39.20;1.00
1361;DHT22;674;45.552;-122.600;2022-07-29T16:13:02;40.00;1.00
1361;DHT22;674;45.552;-122.600;2022-07-29T16:15:30;40.40;1.00
1361;DHT22;674;45.552;-122.600;2022-07-29T16:17:58;40.30;1.00
1361;DHT22;674;45.552;-122.600;2022-07-29T16:20:27;41.60;1.00
1361;DHT22;674;45.552;-122.600;2022-07-29T16:22:56;43.00;1.00
1361;DHT22;674;45.552;-122.600;2022-07-29T16:25:24;42.40;1.00
1361;DHT22;674;45.552;-122.600;2022-07-29T16:28:13;42.90;1.00
1361;DHT22;674;45.552;-122.600;2022-07-29T16:30:41;43.20;1.00
1361;DHT22;674;45.552;-122.600;2022-07-29T16:33:09;41.90;1.00
1361;DHT22;674;45.552;-122.600;2022-07-29T16:35:38;43.60;1.00
1361;DHT22;674;45.552;-122.600;2022-07-29T16:38:07;43.30;1.00
1361;DHT22;674;45.552;-122.600;2022-07-29T16:40:36;43.60;1.00
1361;DHT22;674;45.552;-122.600;2022-07-29T16:43:04;43.60;1.00
1361;DHT22;674;45.552;-122.600;2022-07-29T16:45:33;44.00;1.00
1361;DHT22;674;45.552;-122.600;2022-07-29T16:48:15;43.70;1.00
1361;DHT22;674;45.552;-122.600;2022-07-29T16:50:45;41.50;1.00
1361;DHT22;674;45.552;-122.600;2022-07-29T16:53:13;43.10;1.00
1361;DHT22;674;45.552;-122.600;2022-07-29T16:55:42;43.10;1.00